Valle del Fuerte International Airport

Jump to: basic info | weather | frequencies | runways | comments

Related pages: nearby airports | nearby navaids | notams | map

Basic information (top)

Codes: LMM MMLM
Location: lon 25.685200, lat -109.081001, elev 16 ft / 5 m msl
Status: medium_airport
Scheduled airline service: yes
Links: Wikipedia Mobile

Weather (top)

Current conditions (rec'd 2014/04/20 02:43Z):

MMLM 200243Z 00000KT 10SM SKC 22/15 A2991 RMK SLP129

Airport forecast (rec'd 2014/04/19 06:05Z):

TAF COR MMLM 190559Z 1906/2006 00000KT P6SM BKN100 OVC200 
     FM191000 00000KT 5SM HZ SCT010 BKN100 OVC200 
      TEMPO 1912/1914 2SM BR 
     FM191600 00000KT 6SM HZ SCT100 BKN200 
     FM191800 20010KT P6SM SCT100 BKN200 
     FM200300 00000KT P6SM BKN200

Frequencies (top)

Verify before use: may be inaccurate or out of date.

TWR: 118.8 MHz (MOCHIS TWR)

Runways (top)

09/27: 6,562 x 148 ft (2,000 x 45 m) — paved — lighted

Latest comments (top)

No comments yet for Valle del Fuerte International Airport

More... (top)

See also NOTAMs and nearby airports and navaids, or visit the Valle del Fuerte International Airport page at the main OurAirports website..